Aérodrome :
LOGIN :

S'inscrire | Disclaimer

   EN    FR    IT 

 










Légende :    VFR   VFR Marginal   IFR   IFR Intensif   IFR Très Intensif
Visi : 
Plafond : 
>= 8 km
>= 3000ft
5 à 8 km
1000 à 3000 ft
1500m à 5 km
500 à 1000 ft
800 à 1500m
200 à 500 ft
< 800m
< 200 ft
Symboles :   Orages  Brouillard  Fortes neiges  Fortes précipitations  Vent > 20 kt
SIGMETs :   Divers  Orages  Givrage  Turbulence  Onde Orograph.  Cendres Volcan.







- Altitude de l'aérodrome : 278 ft
- Code IATA : RJK


LDRI - Rijeka

DERNIER METAR :
  • 262330Z 05004KT 020V110 CAVOK 20/14 Q1019

METARs EXPIRÉS :
  • 262300Z 03005KT CAVOK 23/14 Q1019
  • 262230Z 06003KT 020V160 CAVOK 20/13 Q1020
  • 262200Z 05006KT CAVOK 22/13 Q1020
  • 262130Z 03003KT 360V070 CAVOK 22/14 Q1020
  • 262100Z 07004KT 360V140 CAVOK 22/14 Q1020

TAF TAF LDRI
Valide du 27 à 00h jusqu'au 28 à 00h UTC


262325Z 2700/2800 VRB02KT CAVOK TX28/2714Z TN19/2703Z
BECMG 2710/2712 32007KT
BECMG 2716/2718 VRB02KT
Pas de NOTAMs connus pour ce terrain.



MET'MAP, la Météo Aéronautique d'un coup d'oeil ! - Copyright ORBIFLY Décembre 2007 - Disclaimer

ORBIFLY MET'MAP TEAM :

Programmation & Développement : Alexandra Zaïnal
Conception & Développement : Baudouin d'Aumeries
Co-Programmation & Développement : Marc-Olivier Méhu
Soutien technique & logistique : Manuel Goepfert

Contact : metmap@orbifly.com




SOURCES & CREDITS :

   NOAA